createdAt,value
2018-10-21T00:01:30.453Z,96.20
2018-10-21T00:03:58.673Z,96.20
2018-10-21T00:06:26.889Z,96.30
2018-10-21T00:08:55.084Z,96.20
2018-10-21T00:11:23.274Z,96.30
2018-10-21T00:13:51.500Z,96.50
2018-10-21T00:16:19.672Z,96.70
2018-10-21T00:18:47.941Z,96.60
2018-10-21T00:21:16.299Z,96.70
2018-10-21T00:23:44.509Z,96.60
2018-10-21T00:26:12.725Z,96.70
2018-10-21T00:28:40.905Z,96.50
2018-10-21T00:31:09.123Z,96.90
2018-10-21T00:33:37.320Z,96.70
2018-10-21T00:36:05.934Z,96.70
2018-10-21T00:38:34.113Z,96.50
2018-10-21T00:41:02.329Z,96.60
2018-10-21T00:43:30.496Z,96.90
2018-10-21T00:45:58.718Z,97.00
2018-10-21T00:48:27.074Z,96.70
2018-10-21T00:50:55.251Z,96.90
2018-10-21T00:53:23.459Z,97.00
2018-10-21T00:55:51.636Z,96.80
2018-10-21T00:58:19.852Z,96.60
2018-10-21T01:00:48.029Z,96.70
2018-10-21T01:03:16.252Z,96.70
2018-10-21T01:05:44.481Z,97.20
2018-10-21T01:08:12.672Z,97.20
2018-10-21T01:10:40.888Z,97.40
2018-10-21T01:13:09.109Z,97.30
2018-10-21T01:15:37.317Z,97.20
2018-10-21T01:18:05.760Z,97.10
2018-10-21T01:20:33.957Z,97.10
2018-10-21T01:23:05.509Z,97.30
2018-10-21T01:25:33.769Z,97.20
2018-10-21T01:28:01.974Z,97.40
2018-10-21T01:30:30.176Z,97.60
2018-10-21T01:32:58.427Z,97.50
2018-10-21T01:35:26.612Z,97.70
2018-10-21T01:37:54.909Z,97.50
2018-10-21T01:40:31.109Z,97.70
2018-10-21T01:42:59.446Z,97.80
2018-10-21T01:45:27.681Z,97.40
2018-10-21T01:47:57.274Z,97.80
2018-10-21T01:50:25.529Z,97.50
2018-10-21T01:52:54.565Z,97.30
2018-10-21T01:55:23.089Z,97.50
2018-10-21T01:57:51.286Z,97.80
2018-10-21T02:00:19.509Z,97.80
2018-10-21T02:02:47.711Z,97.80
2018-10-21T02:05:15.889Z,97.80
2018-10-21T02:07:44.111Z,97.80
2018-10-21T02:10:12.357Z,97.90
2018-10-21T02:12:40.533Z,97.90
2018-10-21T02:15:09.778Z,97.70
2018-10-21T02:17:37.966Z,97.60
2018-10-21T02:20:06.818Z,97.50
2018-10-21T02:22:35.019Z,97.60
2018-10-21T02:25:03.282Z,97.60
2018-10-21T02:27:31.564Z,97.40
2018-10-21T02:29:59.757Z,97.50
2018-10-21T02:32:28.004Z,97.20
2018-10-21T02:34:56.198Z,97.20
2018-10-21T02:37:24.386Z,97.20
2018-10-21T02:39:52.633Z,96.90
2018-10-21T02:42:20.873Z,96.90
2018-10-21T02:44:49.077Z,97.30
2018-10-21T02:47:17.269Z,97.30
2018-10-21T02:49:45.476Z,97.80
2018-10-21T02:52:13.650Z,97.90
2018-10-21T02:54:43.296Z,98.10
2018-10-21T02:57:12.907Z,98.10
2018-10-21T02:59:41.140Z,98.10
2018-10-21T03:02:09.352Z,98.00
2018-10-21T03:04:37.547Z,97.80
2018-10-21T03:07:05.833Z,97.90
2018-10-21T03:09:34.013Z,98.20
2018-10-21T03:12:02.239Z,98.20
2018-10-21T03:14:30.473Z,98.10
2018-10-21T03:16:58.693Z,98.10
2018-10-21T03:19:26.909Z,97.70
2018-10-21T03:21:55.072Z,97.70
2018-10-21T03:24:23.265Z,97.80
2018-10-21T03:26:51.537Z,97.80
2018-10-21T03:29:19.697Z,98.10
2018-10-21T03:31:47.909Z,98.00
2018-10-21T03:34:16.097Z,98.10
2018-10-21T03:36:44.309Z,98.20
2018-10-21T03:39:12.474Z,98.00
2018-10-21T03:41:40.665Z,98.30
2018-10-21T03:44:08.861Z,98.30
2018-10-21T03:46:37.048Z,98.30
2018-10-21T03:49:05.308Z,98.10
2018-10-21T03:51:33.470Z,98.20
2018-10-21T03:54:01.664Z,98.00
2018-10-21T03:56:29.869Z,98.00
2018-10-21T03:58:58.038Z,98.00
2018-10-21T04:01:26.269Z,97.90
2018-10-21T04:03:54.447Z,97.70
2018-10-21T04:06:22.669Z,97.90
2018-10-21T04:08:50.866Z,97.80
2018-10-21T04:11:19.052Z,98.10
2018-10-21T04:13:47.311Z,98.10
2018-10-21T04:16:15.578Z,98.20
2018-10-21T04:18:43.725Z,98.10
2018-10-21T04:21:11.932Z,98.20
2018-10-21T04:23:40.093Z,98.20
2018-10-21T04:26:08.344Z,98.40
2018-10-21T04:28:36.665Z,98.30
2018-10-21T04:31:04.872Z,98.50
2018-10-21T04:33:39.945Z,98.40
2018-10-21T04:36:09.525Z,98.50
2018-10-21T04:38:52.744Z,98.40
2018-10-21T04:41:21.116Z,98.50
2018-10-21T04:43:49.323Z,98.50
2018-10-21T04:46:17.599Z,98.50
2018-10-21T04:48:48.729Z,98.40
2018-10-21T04:51:16.896Z,98.10
2018-10-21T04:53:45.080Z,97.80
2018-10-21T04:56:13.311Z,97.70
2018-10-21T04:58:41.487Z,97.60
2018-10-21T05:01:09.697Z,97.80
2018-10-21T05:03:37.870Z,97.70
2018-10-21T05:06:06.077Z,97.80
2018-10-21T05:08:34.241Z,97.40
2018-10-21T05:11:02.446Z,97.50
2018-10-21T05:13:30.650Z,97.40
2018-10-21T05:15:58.876Z,97.40
2018-10-21T05:18:27.053Z,97.40
2018-10-21T05:20:55.203Z,97.70
2018-10-21T05:23:23.388Z,97.90
2018-10-21T05:25:51.612Z,98.00
2018-10-21T05:28:19.797Z,97.80
2018-10-21T05:30:48.008Z,97.80
2018-10-21T05:33:16.179Z,97.70
2018-10-21T05:35:44.385Z,97.70
2018-10-21T05:38:12.590Z,98.00
2018-10-21T05:40:40.847Z,98.00
2018-10-21T05:43:09.021Z,97.80
2018-10-21T05:45:37.202Z,97.50
2018-10-21T05:48:05.428Z,97.50
2018-10-21T05:50:33.641Z,97.90
2018-10-21T05:53:01.823Z,97.90
2018-10-21T05:55:30.053Z,97.80
2018-10-21T05:57:58.250Z,97.80
2018-10-21T06:00:26.661Z,97.80
2018-10-21T06:02:54.928Z,97.40
2018-10-21T06:05:44.998Z,97.40
2018-10-21T06:08:13.657Z,97.50
2018-10-21T06:10:42.462Z,97.40
2018-10-21T06:13:10.806Z,97.30
2018-10-21T06:15:39.424Z,97.40
2018-10-21T06:18:11.562Z,97.50
2018-10-21T06:20:42.174Z,97.30
2018-10-21T06:23:10.385Z,97.10
2018-10-21T06:25:38.617Z,97.10
2018-10-21T06:28:06.935Z,96.90
2018-10-21T06:30:35.153Z,96.70
2018-10-21T06:33:03.938Z,96.80
2018-10-21T06:35:32.120Z,96.30
2018-10-21T06:38:00.293Z,96.00
2018-10-21T06:40:28.523Z,95.70
2018-10-21T06:42:56.860Z,96.00
2018-10-21T06:45:25.166Z,96.10
2018-10-21T06:47:53.281Z,96.10
2018-10-21T06:50:21.491Z,96.00
2018-10-21T06:52:49.768Z,95.90
2018-10-21T06:55:17.985Z,95.30
2018-10-21T06:57:46.586Z,94.60
2018-10-21T07:00:15.193Z,94.80
2018-10-21T07:02:43.852Z,95.10
2018-10-21T07:05:23.630Z,95.30
2018-10-21T07:07:51.981Z,95.20
2018-10-21T07:10:20.545Z,94.50
2018-10-21T07:12:48.785Z,94.60
2018-10-21T07:15:17.313Z,94.70
2018-10-21T07:17:45.793Z,94.80
2018-10-21T07:20:13.993Z,94.30
2018-10-21T07:22:43.197Z,94.20
2018-10-21T07:25:11.436Z,94.00
2018-10-21T07:27:40.320Z,93.40
2018-10-21T07:30:10.213Z,92.60
2018-10-21T07:32:38.942Z,92.50
2018-10-21T07:35:08.334Z,91.90
2018-10-21T07:37:36.553Z,90.90
2018-10-21T07:40:05.234Z,89.70
2018-10-21T07:42:33.418Z,88.50
2018-10-21T07:45:01.627Z,89.10
2018-10-21T07:47:29.886Z,87.70
2018-10-21T07:49:58.113Z,87.00
2018-10-21T07:52:26.293Z,87.20
2018-10-21T07:54:54.508Z,86.30
2018-10-21T07:57:22.765Z,86.00
2018-10-21T07:59:50.934Z,86.10
2018-10-21T08:02:19.146Z,85.50
2018-10-21T08:04:47.314Z,85.30
2018-10-21T08:07:26.701Z,85.20
2018-10-21T08:09:54.963Z,85.00
2018-10-21T08:12:23.237Z,85.30
2018-10-21T08:14:51.611Z,84.60
2018-10-21T08:17:19.762Z,84.90
2018-10-21T08:19:48.030Z,84.60
2018-10-21T08:22:16.233Z,84.70
2018-10-21T08:24:44.417Z,83.90
2018-10-21T08:27:12.733Z,84.10
2018-10-21T08:29:40.983Z,83.40
2018-10-21T08:32:09.260Z,83.00
2018-10-21T08:34:37.724Z,82.80
2018-10-21T08:37:05.950Z,82.90
2018-10-21T08:39:34.201Z,82.80
2018-10-21T08:42:02.421Z,82.10
2018-10-21T08:44:30.648Z,82.00
2018-10-21T08:46:58.897Z,81.40
2018-10-21T08:49:27.239Z,80.80
2018-10-21T08:51:55.450Z,79.00
2018-10-21T08:54:23.649Z,79.30
2018-10-21T08:56:51.830Z,79.50
2018-10-21T08:59:20.077Z,78.70
2018-10-21T09:01:48.274Z,79.10
2018-10-21T09:04:16.565Z,78.80
2018-10-21T09:06:44.740Z,77.90
2018-10-21T09:09:12.960Z,78.50
2018-10-21T09:11:41.413Z,78.50
2018-10-21T09:14:09.637Z,78.40
2018-10-21T09:16:37.901Z,76.50
2018-10-21T09:19:06.209Z,76.30
2018-10-21T09:21:34.381Z,77.80
2018-10-21T09:24:02.649Z,77.50
2018-10-21T09:26:30.853Z,76.80
2018-10-21T09:28:59.117Z,76.30
2018-10-21T09:31:27.368Z,76.10
2018-10-21T09:33:55.688Z,77.50
2018-10-21T09:36:23.998Z,77.30
2018-10-21T09:38:52.267Z,76.50
2018-10-21T09:41:20.570Z,76.20
2018-10-21T09:43:48.762Z,76.50
2018-10-21T09:46:17.056Z,76.10
2018-10-21T09:48:45.192Z,75.10
2018-10-21T09:51:13.412Z,73.20
2018-10-21T09:53:41.637Z,73.50
2018-10-21T09:56:09.841Z,73.90
2018-10-21T09:58:38.229Z,74.00
2018-10-21T10:01:11.831Z,72.70
2018-10-21T10:03:40.068Z,70.30
2018-10-21T10:06:08.264Z,70.90
2018-10-21T10:08:36.476Z,70.40
2018-10-21T10:11:05.319Z,69.90
2018-10-21T10:13:33.991Z,69.90
2018-10-21T10:16:02.777Z,68.70
2018-10-21T10:18:31.967Z,70.00
2018-10-21T10:21:00.747Z,69.80
2018-10-21T10:23:29.554Z,68.30
2018-10-21T10:25:58.302Z,68.50
2018-10-21T10:28:26.999Z,68.70
2018-10-21T10:30:55.269Z,66.30
2018-10-21T10:33:23.501Z,67.10
2018-10-21T10:35:51.659Z,66.90
2018-10-21T10:38:19.942Z,66.60
2018-10-21T10:40:48.332Z,66.50
2018-10-21T10:43:16.629Z,66.50
2018-10-21T10:45:45.247Z,65.00
2018-10-21T10:48:13.668Z,63.40
2018-10-21T10:50:42.416Z,63.00
2018-10-21T10:53:10.905Z,64.00
2018-10-21T10:55:45.917Z,63.00
2018-10-21T10:58:15.454Z,61.80
2018-10-21T11:00:43.934Z,61.30
2018-10-21T11:03:12.310Z,62.30
2018-10-21T11:05:42.064Z,62.20
2018-10-21T11:08:11.701Z,62.00
2018-10-21T11:10:40.507Z,60.60
2018-10-21T11:13:08.869Z,61.80
2018-10-21T11:15:36.978Z,62.20
2018-10-21T11:18:05.376Z,61.00
2018-10-21T11:20:33.765Z,62.10
2018-10-21T11:23:02.324Z,61.60
2018-10-21T11:25:30.754Z,60.00
2018-10-21T11:27:59.047Z,61.00
2018-10-21T11:30:27.253Z,60.20
2018-10-21T11:32:55.449Z,60.00
2018-10-21T11:35:23.666Z,61.40
2018-10-21T11:37:51.929Z,60.80
2018-10-21T11:40:20.256Z,61.10
2018-10-21T11:42:48.381Z,61.30
2018-10-21T11:45:16.605Z,59.90
2018-10-21T11:47:44.816Z,60.00
2018-10-21T11:50:13.018Z,59.90
2018-10-21T11:52:41.299Z,59.50
2018-10-21T11:55:09.948Z,59.40
2018-10-21T11:57:38.185Z,60.80
2018-10-21T12:00:07.821Z,62.10
2018-10-21T12:02:36.033Z,62.10
2018-10-21T12:05:04.477Z,61.40
2018-10-21T12:07:33.113Z,62.60
2018-10-21T12:10:01.439Z,62.70
2018-10-21T12:12:29.630Z,63.00
2018-10-21T12:14:57.884Z,63.50
2018-10-21T12:17:26.090Z,62.70
2018-10-21T12:19:54.389Z,61.70
2018-10-21T12:22:22.673Z,61.80
2018-10-21T12:24:51.638Z,61.20
2018-10-21T12:27:19.170Z,61.70
2018-10-21T12:29:47.361Z,61.10
2018-10-21T12:32:15.622Z,61.10
2018-10-21T12:34:43.841Z,60.00
2018-10-21T12:37:12.090Z,60.50
2018-10-21T12:39:40.333Z,61.50
2018-10-21T12:42:08.509Z,61.20
2018-10-21T12:44:36.759Z,61.80
2018-10-21T12:47:11.791Z,62.50
2018-10-21T12:49:40.023Z,62.40
2018-10-21T12:52:08.337Z,61.60
2018-10-21T12:54:36.557Z,61.30
2018-10-21T12:57:04.867Z,61.70
2018-10-21T12:59:33.048Z,61.80
2018-10-21T13:02:01.262Z,61.70
2018-10-21T13:04:29.465Z,61.60
2018-10-21T13:06:57.769Z,61.10
2018-10-21T13:09:25.986Z,62.00
2018-10-21T13:11:54.191Z,62.60
2018-10-21T13:14:22.434Z,63.20
2018-10-21T13:16:50.658Z,63.60
2018-10-21T13:19:19.317Z,62.70
2018-10-21T13:21:47.535Z,63.30
2018-10-21T13:24:15.751Z,62.30
2018-10-21T13:26:44.006Z,62.40
2018-10-21T13:29:12.182Z,63.20
2018-10-21T13:31:40.446Z,64.00
2018-10-21T13:34:08.712Z,65.50
2018-10-21T13:36:36.937Z,65.90
2018-10-21T13:39:07.989Z,66.70
2018-10-21T13:41:36.226Z,66.80
2018-10-21T13:44:04.501Z,66.80
2018-10-21T13:46:32.791Z,66.80
2018-10-21T13:49:01.012Z,66.70
2018-10-21T13:51:29.275Z,65.80
2018-10-21T13:53:57.466Z,64.50
2018-10-21T13:56:25.697Z,62.60
2018-10-21T13:58:53.936Z,62.80
2018-10-21T14:01:22.152Z,63.00
2018-10-21T14:03:50.658Z,63.20
2018-10-21T14:06:18.877Z,63.90
2018-10-21T14:08:47.080Z,64.50
2018-10-21T14:11:15.326Z,64.70
2018-10-21T14:13:43.525Z,64.10
2018-10-21T14:16:11.815Z,65.20
2018-10-21T14:18:39.980Z,64.70
2018-10-21T14:21:08.255Z,65.80
2018-10-21T14:23:36.470Z,65.90
2018-10-21T14:26:04.936Z,65.10
2018-10-21T14:28:33.093Z,65.70
2018-10-21T14:31:01.373Z,64.70
2018-10-21T14:33:29.521Z,65.70
2018-10-21T14:35:57.766Z,65.60
2018-10-21T14:38:26.119Z,65.80
2018-10-21T14:40:54.287Z,65.00
2018-10-21T14:43:22.485Z,65.00
2018-10-21T14:45:50.771Z,65.10
2018-10-21T14:48:19.042Z,64.80
2018-10-21T14:50:47.189Z,65.20
2018-10-21T14:53:15.405Z,64.90
2018-10-21T14:55:44.386Z,65.50
2018-10-21T14:58:12.580Z,65.40
2018-10-21T15:00:40.869Z,65.10
2018-10-21T15:03:09.121Z,65.30
2018-10-21T15:05:37.369Z,65.10
2018-10-21T15:08:05.761Z,65.00
2018-10-21T15:10:33.986Z,65.70
2018-10-21T15:13:02.445Z,65.60
2018-10-21T15:15:30.715Z,64.80
2018-10-21T15:17:59.008Z,65.30
2018-10-21T15:20:27.251Z,65.20
2018-10-21T15:24:27.867Z,66.10
2018-10-21T15:26:56.113Z,66.60
2018-10-21T15:29:24.381Z,66.90
2018-10-21T15:31:53.153Z,68.30
2018-10-21T15:34:21.415Z,68.40
2018-10-21T15:36:49.593Z,69.10
2018-10-21T15:39:17.797Z,70.10
2018-10-21T15:41:46.070Z,70.10
2018-10-21T15:44:14.366Z,71.30
2018-10-21T15:46:42.557Z,71.50
2018-10-21T15:49:10.776Z,71.90
2018-10-21T15:51:38.986Z,72.00
2018-10-21T15:54:07.230Z,72.10
2018-10-21T15:56:35.486Z,72.30
2018-10-21T15:59:03.753Z,72.50
2018-10-21T16:01:31.977Z,72.00
2018-10-21T16:04:00.199Z,72.60
2018-10-21T16:06:28.454Z,72.70
2018-10-21T16:08:56.677Z,73.60
2018-10-21T16:11:24.917Z,73.60
2018-10-21T16:13:53.213Z,74.00
2018-10-21T16:16:21.430Z,74.70
2018-10-21T16:18:49.669Z,74.50
2018-10-21T16:21:17.847Z,74.70
2018-10-21T16:23:46.077Z,75.30
2018-10-21T16:26:14.342Z,75.40
2018-10-21T16:28:42.537Z,75.40
2018-10-21T16:31:10.776Z,75.60
2018-10-21T16:33:38.996Z,76.00
2018-10-21T16:36:07.239Z,76.30
2018-10-21T16:38:35.486Z,76.80
2018-10-21T16:41:03.753Z,77.00
2018-10-21T16:43:31.917Z,77.20
2018-10-21T16:46:00.241Z,77.40
2018-10-21T16:48:28.445Z,77.50
2018-10-21T16:50:56.753Z,77.50
2018-10-21T16:53:24.898Z,77.30
2018-10-21T16:55:53.158Z,77.60
2018-10-21T16:58:24.221Z,77.60
2018-10-21T17:00:53.573Z,77.90
2018-10-21T17:03:22.162Z,78.00
2018-10-21T17:05:52.127Z,78.40
2018-10-21T17:08:20.364Z,79.00
2018-10-21T17:10:48.650Z,78.70
2018-10-21T17:13:17.497Z,79.10
2018-10-21T17:15:45.633Z,79.00
2018-10-21T17:18:13.896Z,79.20
2018-10-21T17:20:42.133Z,79.70
2018-10-21T17:23:10.339Z,79.70
2018-10-21T17:25:38.927Z,79.80
2018-10-21T17:28:07.162Z,80.00
2018-10-21T17:30:35.453Z,80.20
2018-10-21T17:33:03.649Z,80.20
2018-10-21T17:35:31.861Z,80.40
2018-10-21T17:38:00.097Z,80.20
2018-10-21T17:40:29.023Z,80.80
2018-10-21T17:42:57.289Z,80.60
2018-10-21T17:45:25.470Z,81.00
2018-10-21T17:47:53.817Z,80.80
2018-10-21T17:50:22.636Z,81.10
2018-10-21T17:52:50.864Z,80.90
2018-10-21T17:55:19.196Z,81.00
2018-10-21T17:57:47.627Z,81.30
2018-10-21T18:00:15.969Z,81.80
2018-10-21T18:02:44.215Z,82.10
2018-10-21T18:05:13.766Z,82.20
2018-10-21T18:07:42.781Z,82.50
2018-10-21T18:10:11.970Z,82.60
2018-10-21T18:12:40.201Z,82.60
2018-10-21T18:15:09.434Z,82.70
2018-10-21T18:17:38.278Z,83.30
2018-10-21T18:20:08.337Z,83.60
2018-10-21T18:22:36.838Z,83.50
2018-10-21T18:25:06.654Z,83.70
2018-10-21T18:27:34.889Z,83.80
2018-10-21T18:30:03.260Z,83.50
2018-10-21T18:32:31.833Z,83.20
2018-10-21T18:35:00.061Z,83.60
2018-10-21T18:37:28.245Z,84.00
2018-10-21T18:39:56.480Z,84.10
2018-10-21T18:42:25.278Z,84.10
2018-10-21T18:44:53.578Z,84.30
2018-10-21T18:47:21.827Z,84.40
2018-10-21T18:49:50.027Z,84.90
2018-10-21T18:52:18.371Z,84.70
2018-10-21T18:54:46.501Z,84.40
2018-10-21T18:57:14.730Z,84.30
2018-10-21T18:59:42.921Z,84.20
2018-10-21T19:02:11.150Z,84.10
2018-10-21T19:04:39.334Z,83.70
2018-10-21T19:07:08.350Z,83.70
2018-10-21T19:09:36.590Z,84.20
2018-10-21T19:12:05.071Z,84.80
2018-10-21T19:14:33.282Z,84.40
2018-10-21T19:17:02.514Z,84.50
2018-10-21T19:19:30.725Z,84.30
2018-10-21T19:21:58.962Z,84.30
2018-10-21T19:24:27.193Z,84.20
2018-10-21T19:26:55.460Z,84.20
2018-10-21T19:29:23.711Z,84.10
2018-10-21T19:31:51.925Z,84.30
2018-10-21T19:34:20.310Z,84.20
2018-10-21T19:36:48.477Z,84.50
2018-10-21T19:39:17.268Z,84.40
2018-10-21T19:41:46.615Z,84.40
2018-10-21T19:44:15.500Z,84.30
2018-10-21T19:46:44.194Z,84.30
2018-10-21T19:49:12.473Z,84.20
2018-10-21T19:51:40.689Z,84.30
2018-10-21T19:54:09.210Z,84.60
2018-10-21T19:56:38.137Z,85.10
2018-10-21T19:59:06.901Z,85.30
2018-10-21T20:01:35.899Z,85.10
2018-10-21T20:04:04.384Z,85.50
2018-10-21T20:06:32.665Z,85.30
2018-10-21T20:09:01.394Z,84.90
2018-10-21T20:11:29.598Z,84.50
2018-10-21T20:13:57.853Z,84.40
2018-10-21T20:16:26.038Z,84.50
2018-10-21T20:18:54.275Z,85.20
2018-10-21T20:21:22.521Z,85.40
2018-10-21T20:23:50.728Z,85.80
2018-10-21T20:26:18.969Z,86.00
2018-10-21T20:28:47.198Z,85.60
2018-10-21T20:31:15.464Z,85.70
2018-10-21T20:33:43.706Z,85.80
2018-10-21T20:36:11.942Z,86.10
2018-10-21T20:38:40.693Z,86.10
2018-10-21T20:41:09.102Z,85.90
2018-10-21T20:43:37.410Z,86.20
2018-10-21T20:46:05.772Z,86.20
2018-10-21T20:48:33.985Z,86.40
2018-10-21T20:51:02.233Z,86.10
2018-10-21T20:53:30.437Z,86.10
2018-10-21T20:55:58.678Z,86.50
2018-10-21T20:58:26.932Z,86.80
2018-10-21T21:00:55.141Z,86.70
2018-10-21T21:03:23.350Z,86.90
2018-10-21T21:05:51.596Z,87.30
2018-10-21T21:08:20.478Z,87.10
2018-10-21T21:10:48.669Z,87.10
2018-10-21T21:13:16.905Z,86.50
2018-10-21T21:15:45.119Z,86.60
2018-10-21T21:18:14.088Z,86.60
2018-10-21T21:20:42.290Z,86.60
2018-10-21T21:23:10.528Z,86.50
2018-10-21T21:25:38.767Z,86.40
2018-10-21T21:28:07.805Z,86.80
2018-10-21T21:30:36.217Z,86.20
2018-10-21T21:33:04.909Z,86.90
2018-10-21T21:35:33.154Z,86.50
2018-10-21T21:38:01.341Z,86.50
2018-10-21T21:40:29.601Z,87.20
2018-10-21T21:42:58.505Z,87.40
2018-10-21T21:45:27.181Z,87.40
2018-10-21T21:47:55.953Z,87.50
2018-10-21T21:50:24.631Z,87.90
2018-10-21T21:52:53.365Z,88.00
2018-10-21T21:55:22.025Z,87.10
2018-10-21T21:57:50.759Z,87.10
2018-10-21T22:00:19.630Z,86.90
2018-10-21T22:02:48.399Z,86.90
2018-10-21T22:05:17.075Z,87.20
2018-10-21T22:07:45.805Z,87.00
2018-10-21T22:10:15.466Z,86.90
2018-10-21T22:12:44.668Z,86.30
2018-10-21T22:15:13.317Z,86.40
2018-10-21T22:17:42.031Z,87.00
2018-10-21T22:20:11.033Z,86.40
2018-10-21T22:22:39.294Z,86.40
2018-10-21T22:25:07.717Z,85.80
2018-10-21T22:27:35.997Z,86.10
2018-10-21T22:30:05.317Z,87.00
2018-10-21T22:32:33.496Z,86.50
2018-10-21T22:35:01.726Z,86.40
2018-10-21T22:37:29.933Z,86.10
2018-10-21T22:39:58.119Z,86.20
2018-10-21T22:42:26.391Z,86.50
2018-10-21T22:44:54.657Z,86.80
2018-10-21T22:47:22.857Z,87.00
2018-10-21T22:49:51.153Z,87.40
2018-10-21T22:52:19.597Z,87.30
2018-10-21T22:54:47.808Z,86.90
2018-10-21T22:57:16.037Z,87.00
2018-10-21T22:59:44.683Z,87.30
2018-10-21T23:02:13.289Z,87.40
2018-10-21T23:04:41.536Z,87.50
2018-10-21T23:07:09.809Z,87.10
2018-10-21T23:09:38.010Z,87.00
2018-10-21T23:12:06.711Z,87.00
2018-10-21T23:14:35.009Z,86.40
2018-10-21T23:17:03.285Z,86.40
2018-10-21T23:19:44.285Z,86.90
2018-10-21T23:22:12.614Z,87.30
2018-10-21T23:24:41.203Z,87.80
2018-10-21T23:27:10.386Z,88.20
2018-10-21T23:29:38.607Z,88.70
2018-10-21T23:32:06.865Z,88.60
2018-10-21T23:34:35.032Z,88.50
2018-10-21T23:37:03.365Z,88.70
2018-10-21T23:39:31.546Z,88.70
2018-10-21T23:42:00.553Z,89.00
2018-10-21T23:44:29.405Z,88.60
2018-10-21T23:46:57.710Z,88.40
2018-10-21T23:49:25.974Z,88.80
2018-10-21T23:51:54.167Z,89.00
2018-10-21T23:54:22.401Z,88.70
2018-10-21T23:56:50.604Z,88.60
2018-10-21T23:59:18.836Z,89.40
